createdAt,value
2022-11-09T00:01:43.171Z,5.64
2022-11-09T00:04:13.245Z,5.63
2022-11-09T00:06:41.974Z,5.65
2022-11-09T00:09:11.088Z,5.63
2022-11-09T00:11:40.162Z,5.61
2022-11-09T00:14:16.053Z,5.60
2022-11-09T00:16:44.882Z,5.56
2022-11-09T00:19:14.189Z,5.58
2022-11-09T00:21:43.061Z,5.58
2022-11-09T00:24:12.180Z,5.59
2022-11-09T00:26:40.843Z,5.63
2022-11-09T00:29:11.381Z,5.60
2022-11-09T00:31:40.166Z,5.67
2022-11-09T00:34:09.635Z,5.68
2022-11-09T00:36:38.306Z,5.74
2022-11-09T00:39:10.887Z,5.81
2022-11-09T00:41:39.592Z,5.86
2022-11-09T00:44:09.920Z,5.92
2022-11-09T00:46:38.852Z,5.97
2022-11-09T00:49:08.571Z,6.06
2022-11-09T00:51:37.340Z,6.08
2022-11-09T00:54:08.164Z,6.13
2022-11-09T00:56:37.208Z,6.14
2022-11-09T00:59:06.644Z,6.17
2022-11-09T01:01:36.756Z,6.16
2022-11-09T01:04:07.219Z,6.20
2022-11-09T01:06:36.232Z,6.21
2022-11-09T01:09:05.466Z,6.22
2022-11-09T01:11:34.255Z,6.23
2022-11-09T01:14:03.261Z,6.26
2022-11-09T01:16:32.002Z,6.30
2022-11-09T01:19:02.344Z,6.33
2022-11-09T01:21:31.234Z,6.34
2022-11-09T01:24:02.398Z,6.35
2022-11-09T01:26:31.754Z,6.33
2022-11-09T01:29:00.718Z,6.32
2022-11-09T01:31:29.418Z,6.32
2022-11-09T01:33:58.454Z,6.29
2022-11-09T01:36:28.507Z,6.27
2022-11-09T01:38:57.624Z,6.27
2022-11-09T01:41:29.720Z,6.26
2022-11-09T01:44:12.166Z,6.27
2022-11-09T01:46:50.777Z,6.24
2022-11-09T01:49:37.775Z,6.24
2022-11-09T01:52:11.730Z,6.21
2022-11-09T01:54:45.713Z,6.21
2022-11-09T01:57:23.538Z,6.22
2022-11-09T01:59:59.053Z,6.21
2022-11-09T02:02:27.814Z,6.16
2022-11-09T02:05:04.525Z,6.15
2022-11-09T02:07:36.401Z,6.15
2022-11-09T02:10:15.141Z,6.13
2022-11-09T02:12:46.531Z,6.13
2022-11-09T02:15:16.573Z,6.10
2022-11-09T02:17:46.500Z,6.08
2022-11-09T02:20:18.097Z,6.05
2022-11-09T02:22:47.339Z,6.03
2022-11-09T02:25:18.699Z,6.03
2022-11-09T02:27:47.915Z,5.99
2022-11-09T02:30:18.125Z,6.02
2022-11-09T02:32:46.855Z,5.99
2022-11-09T02:35:17.138Z,5.93
2022-11-09T02:37:50.423Z,5.89
2022-11-09T02:40:27.738Z,5.85
2022-11-09T02:42:57.899Z,5.81
2022-11-09T02:45:26.770Z,5.77
2022-11-09T02:47:56.390Z,5.79
2022-11-09T02:50:26.897Z,5.76
2022-11-09T02:52:55.439Z,5.71
2022-11-09T02:55:25.455Z,5.66
2022-11-09T02:57:54.024Z,5.67
2022-11-09T03:00:23.159Z,5.68
2022-11-09T03:02:52.309Z,5.71
2022-11-09T03:05:21.787Z,5.70
2022-11-09T03:07:51.860Z,5.69
2022-11-09T03:10:20.689Z,5.72
2022-11-09T03:12:49.295Z,5.72
2022-11-09T03:15:18.502Z,5.70
2022-11-09T03:17:48.285Z,5.72
2022-11-09T03:20:18.517Z,5.71
2022-11-09T03:22:47.076Z,5.74
2022-11-09T03:25:18.263Z,5.71
2022-11-09T03:27:47.080Z,5.74
2022-11-09T03:30:19.099Z,5.75
2022-11-09T03:32:50.612Z,5.74
2022-11-09T03:35:19.862Z,5.75
2022-11-09T03:37:48.643Z,5.78
2022-11-09T03:40:19.795Z,5.79
2022-11-09T03:42:51.016Z,5.79
2022-11-09T03:45:19.901Z,5.77
2022-11-09T03:47:49.011Z,5.79
2022-11-09T03:50:18.973Z,5.80
2022-11-09T03:52:48.585Z,5.85
2022-11-09T03:55:18.883Z,5.87
2022-11-09T03:57:47.882Z,5.86
2022-11-09T04:00:20.908Z,5.87
2022-11-09T04:02:51.758Z,5.89
2022-11-09T04:05:21.373Z,5.90
2022-11-09T04:07:53.976Z,5.95
2022-11-09T04:10:26.866Z,5.95
2022-11-09T04:12:55.756Z,5.92
2022-11-09T04:15:24.559Z,5.97
2022-11-09T04:17:58.850Z,5.95
2022-11-09T04:20:29.698Z,5.95
2022-11-09T04:22:59.968Z,5.95
2022-11-09T04:25:34.277Z,5.96
2022-11-09T04:28:05.390Z,5.92
2022-11-09T04:30:36.863Z,5.95
2022-11-09T04:33:06.118Z,5.92
2022-11-09T04:35:36.072Z,5.89
2022-11-09T04:38:08.815Z,5.87
2022-11-09T04:40:39.231Z,5.85
2022-11-09T04:43:11.827Z,5.86
2022-11-09T04:45:41.181Z,5.85
2022-11-09T04:48:12.160Z,5.83
2022-11-09T04:50:40.956Z,5.80
2022-11-09T04:53:12.460Z,5.82
2022-11-09T04:55:43.083Z,5.81
2022-11-09T04:58:11.888Z,5.78
2022-11-09T05:00:41.026Z,5.75
2022-11-09T05:03:10.048Z,5.75
2022-11-09T05:05:44.027Z,5.72
2022-11-09T05:08:15.691Z,5.70
2022-11-09T05:10:45.916Z,5.67
2022-11-09T05:13:15.704Z,5.61
2022-11-09T05:15:44.569Z,5.62
2022-11-09T05:18:13.173Z,5.66
2022-11-09T05:20:41.951Z,5.63
2022-11-09T05:23:29.114Z,5.60
2022-11-09T05:25:59.235Z,5.60
2022-11-09T05:28:27.760Z,5.61
2022-11-09T05:30:56.531Z,5.56
2022-11-09T05:33:25.040Z,5.56
2022-11-09T05:35:56.133Z,5.54
2022-11-09T05:38:25.820Z,5.54
2022-11-09T05:40:55.567Z,5.51
2022-11-09T05:43:25.619Z,5.49
2022-11-09T05:45:54.435Z,5.48
2022-11-09T05:48:22.953Z,5.50
2022-11-09T05:50:51.902Z,5.53
2022-11-09T05:53:25.943Z,5.53
2022-11-09T05:55:54.931Z,5.55
2022-11-09T05:58:24.784Z,5.54
2022-11-09T06:00:53.580Z,5.50
2022-11-09T06:03:22.366Z,5.49
2022-11-09T06:05:51.481Z,5.48
2022-11-09T06:08:19.996Z,5.49
2022-11-09T06:10:48.795Z,5.52
2022-11-09T06:13:17.575Z,5.56
2022-11-09T06:15:55.126Z,5.58
2022-11-09T06:18:24.302Z,5.62
2022-11-09T06:20:54.656Z,5.65
2022-11-09T06:23:25.752Z,5.69
2022-11-09T06:25:54.798Z,5.73
2022-11-09T06:28:23.335Z,5.72
2022-11-09T06:30:53.842Z,5.81
2022-11-09T06:33:22.697Z,5.92
2022-11-09T06:35:56.059Z,5.96
2022-11-09T06:38:26.472Z,6.05
2022-11-09T06:40:58.199Z,6.13
2022-11-09T06:43:27.651Z,6.17
2022-11-09T06:45:58.087Z,6.20
2022-11-09T06:48:26.590Z,6.29
2022-11-09T06:50:55.452Z,6.34
2022-11-09T06:53:24.249Z,6.43
2022-11-09T06:55:53.207Z,6.48
2022-11-09T06:58:22.067Z,6.53
2022-11-09T07:00:51.017Z,6.64
2022-11-09T07:03:23.939Z,6.73
2022-11-09T07:05:53.886Z,6.82
2022-11-09T07:08:22.435Z,6.88
2022-11-09T07:10:51.310Z,6.98
2022-11-09T07:13:20.241Z,6.98
2022-11-09T07:15:55.375Z,7.04
2022-11-09T07:18:25.442Z,7.17
2022-11-09T07:20:54.409Z,7.25
2022-11-09T07:23:23.195Z,7.26
2022-11-09T07:25:52.406Z,7.40
2022-11-09T07:28:20.889Z,7.51
2022-11-09T07:30:52.905Z,7.57
2022-11-09T07:33:22.787Z,7.62
2022-11-09T07:35:53.319Z,7.76
2022-11-09T07:38:21.934Z,7.81
2022-11-09T07:40:50.716Z,7.90
2022-11-09T07:43:19.733Z,7.96
2022-11-09T07:45:52.783Z,8.02
2022-11-09T07:48:21.736Z,8.16
2022-11-09T07:50:52.129Z,8.25
2022-11-09T07:53:21.502Z,8.34
2022-11-09T07:55:58.638Z,8.32
2022-11-09T07:58:28.163Z,8.43
2022-11-09T08:00:58.182Z,8.46
2022-11-09T08:03:27.408Z,8.56
2022-11-09T08:05:59.112Z,8.60
2022-11-09T08:08:27.683Z,8.72
2022-11-09T08:10:59.011Z,8.77
2022-11-09T08:13:28.360Z,8.86
2022-11-09T08:15:57.327Z,8.86
2022-11-09T08:18:25.837Z,8.89
2022-11-09T08:20:54.636Z,9.02
2022-11-09T08:23:24.508Z,9.09
2022-11-09T08:25:53.303Z,9.09
2022-11-09T08:28:22.870Z,9.11
2022-11-09T08:30:58.369Z,9.13
2022-11-09T08:33:29.123Z,9.17
2022-11-09T08:35:58.204Z,9.22
2022-11-09T08:38:28.134Z,9.32
2022-11-09T08:41:00.266Z,9.39
2022-11-09T08:43:28.871Z,9.56
2022-11-09T08:45:57.736Z,9.69
2022-11-09T08:48:26.569Z,9.87
2022-11-09T08:50:57.894Z,10.25
2022-11-09T08:53:30.653Z,10.22
2022-11-09T08:55:59.712Z,10.38
2022-11-09T08:58:28.483Z,10.42
2022-11-09T09:00:57.243Z,10.43
2022-11-09T09:03:26.070Z,10.45
2022-11-09T09:05:54.882Z,10.49
2022-11-09T09:08:23.874Z,10.42
2022-11-09T09:10:54.186Z,10.58
2022-11-09T09:13:23.312Z,10.63
2022-11-09T09:15:52.125Z,10.89
2022-11-09T09:18:20.939Z,10.90
2022-11-09T09:20:50.012Z,11.08
2022-11-09T09:23:18.679Z,10.92
2022-11-09T09:25:47.668Z,11.23
2022-11-09T09:28:19.198Z,11.47
2022-11-09T09:30:48.240Z,11.35
2022-11-09T09:33:16.745Z,11.36
2022-11-09T09:35:45.571Z,11.48
2022-11-09T09:38:14.063Z,11.47
2022-11-09T09:40:59.974Z,11.69
2022-11-09T09:43:41.680Z,11.69
2022-11-09T09:46:25.166Z,11.88
2022-11-09T09:49:02.375Z,11.63
2022-11-09T09:52:06.743Z,11.67
2022-11-09T09:54:42.114Z,11.28
2022-11-09T09:57:22.348Z,11.41
2022-11-09T10:00:01.169Z,11.37
2022-11-09T10:02:38.016Z,11.66
2022-11-09T10:05:12.582Z,11.68
2022-11-09T10:07:57.889Z,11.76
2022-11-09T10:11:01.475Z,11.81
2022-11-09T10:13:56.973Z,12.04
2022-11-09T10:16:38.492Z,11.90
2022-11-09T10:19:36.956Z,11.82
2022-11-09T10:22:15.128Z,11.94
2022-11-09T10:25:18.945Z,11.88
2022-11-09T10:27:53.700Z,11.81
2022-11-09T10:30:34.743Z,12.04
2022-11-09T10:33:25.783Z,11.89
2022-11-09T10:36:14.100Z,11.96
2022-11-09T10:38:56.319Z,11.91
2022-11-09T10:41:46.875Z,12.02
2022-11-09T10:44:33.987Z,12.20
2022-11-09T10:47:26.369Z,12.32
2022-11-09T10:50:33.482Z,12.48
2022-11-09T10:53:24.905Z,12.46
2022-11-09T10:56:20.732Z,12.54
2022-11-09T10:59:44.902Z,12.39
2022-11-09T11:02:46.397Z,12.53
2022-11-09T11:05:36.186Z,12.45
2022-11-09T11:08:32.893Z,12.65
2022-11-09T11:11:33.631Z,12.61
2022-11-09T11:14:30.791Z,12.66
2022-11-09T11:17:27.300Z,12.63
2022-11-09T11:20:33.593Z,12.70
2022-11-09T11:23:24.986Z,12.62
2022-11-09T11:26:40.056Z,12.90
2022-11-09T11:29:39.979Z,12.71
2022-11-09T11:32:27.773Z,12.68
2022-11-09T11:35:19.551Z,12.75
2022-11-09T11:38:23.706Z,12.71
2022-11-09T11:41:52.891Z,12.77
2022-11-09T11:45:33.419Z,12.75
2022-11-09T11:48:36.230Z,12.81
2022-11-09T11:51:37.564Z,12.81
2022-11-09T11:54:38.323Z,12.79
2022-11-09T11:57:44.116Z,13.03
2022-11-09T12:00:42.102Z,13.05
2022-11-09T12:03:51.874Z,13.19
2022-11-09T12:07:00.955Z,13.42
2022-11-09T12:10:07.669Z,13.12
2022-11-09T12:13:10.824Z,13.47
2022-11-09T12:16:09.210Z,13.24
2022-11-09T12:19:15.354Z,13.22
2022-11-09T12:22:13.437Z,13.20
2022-11-09T12:25:12.653Z,13.22
2022-11-09T12:28:26.757Z,13.22
2022-11-09T12:31:31.241Z,13.13
2022-11-09T12:34:26.619Z,13.19
2022-11-09T12:37:17.259Z,13.16
2022-11-09T12:40:22.934Z,13.05
2022-11-09T12:43:20.934Z,13.01
2022-11-09T12:46:12.441Z,12.90
2022-11-09T12:49:04.716Z,13.15
2022-11-09T12:51:58.807Z,12.99
2022-11-09T12:54:50.175Z,12.86
2022-11-09T12:57:37.679Z,12.91
2022-11-09T13:00:52.817Z,12.86
2022-11-09T13:03:52.632Z,12.69
2022-11-09T13:06:39.971Z,12.65
2022-11-09T13:09:39.821Z,12.62
2022-11-09T13:12:38.734Z,12.65
2022-11-09T13:15:28.697Z,12.52
2022-11-09T13:18:51.257Z,12.44
2022-11-09T13:21:42.744Z,12.37
2022-11-09T13:24:56.452Z,12.32
2022-11-09T13:27:47.239Z,12.29
2022-11-09T13:30:43.693Z,12.20
2022-11-09T13:33:32.660Z,12.15
2022-11-09T13:36:22.202Z,12.26
2022-11-09T13:39:33.367Z,12.16
2022-11-09T13:42:31.795Z,12.18
2022-11-09T13:45:30.074Z,12.14
2022-11-09T13:48:41.465Z,12.13
2022-11-09T13:51:46.143Z,12.08
2022-11-09T13:54:35.740Z,12.04
2022-11-09T13:57:25.766Z,12.02
2022-11-09T14:00:23.353Z,11.96
2022-11-09T14:03:22.930Z,11.97
2022-11-09T14:06:14.534Z,11.94
2022-11-09T14:09:03.907Z,11.86
2022-11-09T14:12:15.061Z,11.86
2022-11-09T14:15:21.004Z,11.82
2022-11-09T14:18:26.623Z,11.71
2022-11-09T14:34:40.615Z,12.06
2022-11-09T14:37:28.641Z,11.71
2022-11-09T14:40:24.036Z,11.54
2022-11-09T14:43:28.633Z,11.40
2022-11-09T14:46:21.429Z,11.23
2022-11-09T14:49:12.997Z,11.19
2022-11-09T14:52:02.766Z,11.20
2022-11-09T14:54:51.336Z,11.10
2022-11-09T14:57:39.528Z,11.09
2022-11-09T15:00:34.071Z,11.14
2022-11-09T15:03:28.278Z,10.94
2022-11-09T15:06:18.975Z,10.87
2022-11-09T15:09:15.980Z,10.84
2022-11-09T15:12:04.463Z,10.80
2022-11-09T15:14:54.841Z,10.78
2022-11-09T15:17:49.179Z,10.66
2022-11-09T15:20:36.445Z,10.53
2022-11-09T15:23:37.231Z,10.47
2022-11-09T15:26:37.497Z,10.51
2022-11-09T15:29:35.504Z,10.43
2022-11-09T15:32:23.895Z,10.32
2022-11-09T15:35:18.445Z,10.28
2022-11-09T15:38:05.569Z,10.30
2022-11-09T15:40:52.891Z,10.30
2022-11-09T15:43:41.801Z,10.22
2022-11-09T15:46:36.179Z,10.29
2022-11-09T15:49:27.053Z,10.33
2022-11-09T15:52:14.877Z,10.36
2022-11-09T15:55:01.739Z,10.26
2022-11-09T15:57:50.149Z,10.32
2022-11-09T16:00:38.621Z,10.19
2022-11-09T16:03:25.789Z,10.16
2022-11-09T16:06:17.768Z,10.11
2022-11-09T16:09:05.534Z,10.05
2022-11-09T16:11:52.424Z,10.06
2022-11-09T16:14:39.977Z,10.02
2022-11-09T16:17:30.534Z,10.03
2022-11-09T16:20:18.773Z,10.02
2022-11-09T16:23:05.685Z,10.01
2022-11-09T16:25:53.389Z,10.03
2022-11-09T16:28:40.918Z,10.10
2022-11-09T16:31:50.848Z,10.13
2022-11-09T16:34:36.895Z,10.09
2022-11-09T16:37:25.259Z,10.03
2022-11-09T16:40:16.937Z,10.03
2022-11-09T16:43:04.279Z,9.93
2022-11-09T16:45:51.841Z,9.93
2022-11-09T16:48:39.445Z,9.95
2022-11-09T16:51:27.850Z,9.84
2022-11-09T16:54:15.305Z,9.81
2022-11-09T16:57:02.734Z,9.74
2022-11-09T16:59:50.099Z,9.66
2022-11-09T17:02:36.922Z,9.62
2022-11-09T17:05:24.520Z,9.55
2022-11-09T17:08:13.965Z,9.60
2022-11-09T17:11:01.464Z,9.66
2022-11-09T17:13:48.473Z,9.63
2022-11-09T17:16:36.597Z,9.58
2022-11-09T17:19:23.884Z,9.52
2022-11-09T17:22:11.698Z,9.44
2022-11-09T17:25:00.480Z,9.37
2022-11-09T17:27:47.996Z,9.30
2022-11-09T17:30:35.760Z,9.26
2022-11-09T17:33:24.758Z,9.25
2022-11-09T17:36:14.717Z,9.22
2022-11-09T17:39:02.571Z,9.15
2022-11-09T17:41:51.663Z,9.15
2022-11-09T17:44:39.364Z,9.23
2022-11-09T17:47:27.098Z,9.21
2022-11-09T17:50:14.603Z,9.21
2022-11-09T17:53:01.998Z,9.29
2022-11-09T17:55:50.805Z,9.31
2022-11-09T17:58:43.959Z,9.29
2022-11-09T18:01:32.393Z,9.24
2022-11-09T18:04:22.391Z,9.09
2022-11-09T18:07:09.950Z,9.18
2022-11-09T18:09:57.597Z,9.11
2022-11-09T18:12:44.963Z,9.06
2022-11-09T18:15:34.316Z,9.02
2022-11-09T18:18:22.250Z,9.00
2022-11-09T18:21:11.193Z,9.03
2022-11-09T18:23:58.533Z,9.11
2022-11-09T18:26:46.065Z,9.08
2022-11-09T18:29:33.521Z,9.09
2022-11-09T18:32:22.112Z,9.09
2022-11-09T18:35:09.933Z,9.09
2022-11-09T18:37:57.257Z,9.10
2022-11-09T18:40:44.558Z,9.08
2022-11-09T18:43:33.295Z,9.11
2022-11-09T18:46:22.500Z,9.10
2022-11-09T18:49:14.257Z,9.10
2022-11-09T18:52:02.141Z,9.16
2022-11-09T18:54:49.593Z,9.13
2022-11-09T18:57:36.919Z,9.06
2022-11-09T19:00:24.002Z,9.06
2022-11-09T19:03:16.147Z,9.04
2022-11-09T19:06:09.406Z,9.01
2022-11-09T19:09:14.698Z,9.03
2022-11-09T19:12:08.065Z,9.01
2022-11-09T19:14:55.341Z,8.98
2022-11-09T19:17:42.126Z,8.98
2022-11-09T19:20:30.131Z,8.96
2022-11-09T19:23:18.360Z,8.95
2022-11-09T19:26:05.967Z,8.91
2022-11-09T19:28:53.154Z,8.88
2022-11-09T19:31:43.387Z,8.88
2022-11-09T19:34:30.849Z,8.86
2022-11-09T19:37:18.286Z,8.81
2022-11-09T19:40:08.561Z,8.72
2022-11-09T19:42:56.292Z,8.65
2022-11-09T19:45:44.023Z,8.59
2022-11-09T19:48:32.078Z,8.56
2022-11-09T19:51:19.788Z,8.55
2022-11-09T19:54:08.052Z,8.49
2022-11-09T19:56:56.583Z,8.47
2022-11-09T19:59:44.237Z,8.46
2022-11-09T20:02:32.091Z,8.38
2022-11-09T20:05:19.469Z,8.32
2022-11-09T20:08:06.654Z,8.30
2022-11-09T20:10:55.216Z,8.30
2022-11-09T20:13:42.873Z,8.22
2022-11-09T20:16:33.055Z,8.18
2022-11-09T20:19:21.733Z,8.13
2022-11-09T20:22:09.097Z,8.10
2022-11-09T20:24:56.657Z,8.07
2022-11-09T20:27:44.233Z,8.01
2022-11-09T20:30:32.421Z,7.95
2022-11-09T20:33:20.136Z,7.90
2022-11-09T20:36:08.412Z,7.82
2022-11-09T20:38:56.379Z,7.78
2022-11-09T20:41:43.385Z,7.75
2022-11-09T20:44:30.799Z,7.69
2022-11-09T20:47:41.920Z,7.68
2022-11-09T20:50:27.471Z,7.65
2022-11-09T20:53:15.691Z,7.60
2022-11-09T20:56:03.208Z,7.54
2022-11-09T20:58:51.011Z,7.47
2022-11-09T21:01:39.406Z,7.41
2022-11-09T21:04:27.895Z,7.36
2022-11-09T21:07:15.519Z,7.30
2022-11-09T21:10:02.757Z,7.30
2022-11-09T21:12:54.183Z,7.31
2022-11-09T21:15:41.467Z,7.30
2022-11-09T21:18:28.936Z,7.24
2022-11-09T21:21:20.546Z,7.34
2022-11-09T21:24:27.796Z,7.22
2022-11-09T21:27:32.442Z,7.10
2022-11-09T21:30:19.947Z,7.03
2022-11-09T21:33:07.173Z,6.92
2022-11-09T21:35:54.655Z,6.86
2022-11-09T21:38:42.946Z,6.81
2022-11-09T21:41:38.996Z,6.80
2022-11-09T21:44:28.492Z,6.76
2022-11-09T21:47:16.068Z,6.70
2022-11-09T21:50:06.961Z,6.58
2022-11-09T21:52:56.788Z,6.49
2022-11-09T21:55:45.046Z,6.39
2022-11-09T21:58:33.268Z,6.31
2022-11-09T22:01:21.302Z,6.28
2022-11-09T22:04:09.596Z,6.25
2022-11-09T22:06:57.181Z,6.16
2022-11-09T22:10:08.912Z,6.11
2022-11-09T22:13:15.285Z,6.08
2022-11-09T22:16:09.831Z,6.10
2022-11-09T22:19:14.901Z,6.08
2022-11-09T22:22:02.267Z,5.99
2022-11-09T22:24:50.057Z,5.92
2022-11-09T22:27:37.530Z,5.90
2022-11-09T22:30:25.741Z,5.85
2022-11-09T22:33:14.535Z,5.82
2022-11-09T22:36:03.857Z,5.81
2022-11-09T22:38:51.497Z,5.79
2022-11-09T22:41:38.223Z,5.73
2022-11-09T22:44:25.735Z,5.69
2022-11-09T22:47:13.995Z,5.63
2022-11-09T22:50:01.448Z,5.58
2022-11-09T22:52:53.333Z,5.59
2022-11-09T22:55:41.389Z,5.66
2022-11-09T22:58:29.274Z,5.65
2022-11-09T23:01:19.728Z,5.58
2022-11-09T23:04:09.985Z,5.59
2022-11-09T23:06:57.508Z,5.65
2022-11-09T23:09:44.853Z,5.72
2022-11-09T23:12:34.542Z,5.79
2022-11-09T23:15:21.437Z,5.76
2022-11-09T23:18:28.328Z,5.76
2022-11-09T23:21:17.979Z,5.79
2022-11-09T23:24:28.459Z,5.79
2022-11-09T23:27:15.298Z,5.80
2022-11-09T23:30:02.732Z,5.85
2022-11-09T23:32:49.743Z,5.85
2022-11-09T23:35:37.242Z,5.83
2022-11-09T23:38:25.748Z,5.83
2022-11-09T23:41:15.705Z,5.88
2022-11-09T23:44:02.620Z,5.89
2022-11-09T23:46:50.175Z,5.86
2022-11-09T23:49:37.326Z,5.91
2022-11-09T23:52:24.721Z,5.92
2022-11-09T23:55:13.854Z,5.91
2022-11-09T23:58:03.090Z,5.94
